createdAt,value
2016-05-25T00:00:56.500Z,79.72
2016-05-25T00:01:56.644Z,79.52
2016-05-25T00:02:57.255Z,79.62
2016-05-25T00:03:56.633Z,79.81
2016-05-25T00:04:56.636Z,79.72
2016-05-25T00:05:56.639Z,79.43
2016-05-25T00:06:56.642Z,80.29
2016-05-25T00:07:56.629Z,80
2016-05-25T00:08:56.725Z,80
2016-05-25T00:09:56.619Z,80.29
2016-05-25T00:10:56.652Z,80
2016-05-25T00:11:56.624Z,80
2016-05-25T00:12:56.626Z,79.91
2016-05-25T00:13:56.613Z,79.91
2016-05-25T00:14:56.632Z,80.29
2016-05-25T00:15:56.618Z,80.67
2016-05-25T00:16:56.622Z,80.38
2016-05-25T00:17:56.452Z,80.48
2016-05-25T00:18:56.612Z,81.25
2016-05-25T00:19:56.614Z,80.87
2016-05-25T00:20:56.617Z,80.87
2016-05-25T00:21:56.604Z,80.77
2016-05-25T00:22:56.622Z,80.96
2016-05-25T00:23:56.609Z,81.44
2016-05-25T00:24:56.612Z,81.34
2016-05-25T00:25:56.599Z,80.96
2016-05-25T00:26:57.711Z,81.05
2016-05-25T00:27:56.854Z,80.87
2016-05-25T00:28:57.873Z,81.25
2016-05-25T00:29:56.595Z,81.44
2016-05-25T00:30:57.409Z,81.25
2016-05-25T00:31:57.084Z,81.4
2016-05-25T00:32:56.664Z,81.34
2016-05-25T00:33:56.589Z,80.87
2016-05-25T00:34:56.639Z,81.21
2016-05-25T00:35:56.594Z,81.11
2016-05-25T00:36:57.113Z,81.73
2016-05-25T00:37:56.771Z,81.54
2016-05-25T00:38:56.588Z,81.82
2016-05-25T00:39:56.591Z,81.49
2016-05-25T00:40:56.577Z,81.34
2016-05-25T00:41:56.580Z,81.82
2016-05-25T00:42:56.426Z,81.44
2016-05-25T00:43:56.585Z,81.73
2016-05-25T00:44:56.571Z,81.63
2016-05-25T00:45:56.574Z,81.54
2016-05-25T00:46:56.749Z,81.73
2016-05-25T00:47:56.565Z,81.3
2016-05-25T00:48:56.568Z,81.49
2016-05-25T00:49:56.570Z,81.54
2016-05-25T00:50:56.573Z,81.34
2016-05-25T00:51:56.559Z,81.4
2016-05-25T00:52:56.562Z,81.44
2016-05-25T00:53:56.565Z,81.4
2016-05-25T00:54:56.567Z,81.21
2016-05-25T00:55:56.555Z,81.49
2016-05-25T00:56:56.557Z,81.49
2016-05-25T00:57:56.559Z,81.49
2016-05-25T00:58:56.562Z,81.4
2016-05-25T00:59:56.550Z,81.44
2016-05-25T01:00:56.397Z,81.49
2016-05-25T01:01:56.758Z,81.49
2016-05-25T01:02:56.542Z,81.4
2016-05-25T01:03:56.545Z,81.34
2016-05-25T01:04:56.532Z,81.21
2016-05-25T01:05:56.410Z,81.4
2016-05-25T01:06:56.537Z,81.4
2016-05-25T01:07:56.540Z,81.49
2016-05-25T01:08:56.527Z,81.49
2016-05-25T01:09:56.530Z,81.49
2016-05-25T01:10:56.533Z,81.49
2016-05-25T01:11:57.535Z,81.49
2016-05-25T01:12:56.929Z,81.49
2016-05-25T01:13:56.524Z,81.49
2016-05-25T01:14:56.668Z,81.49
2016-05-25T01:15:56.765Z,81.4
2016-05-25T01:16:56.595Z,81.4
2016-05-25T01:17:57.067Z,81.49
2016-05-25T01:18:56.523Z,81.3
2016-05-25T01:19:56.526Z,81.88
2016-05-25T01:20:56.512Z,81.88
2016-05-25T01:21:57.624Z,81.78
2016-05-25T01:23:10.692Z,81.88
2016-05-25T01:23:57.208Z,81.78
2016-05-25T01:24:56.507Z,81.78
2016-05-25T01:25:56.526Z,81.88
2016-05-25T01:26:56.606Z,81.78
2016-05-25T01:27:56.501Z,81.68
2016-05-25T01:28:56.753Z,81.21
2016-05-25T01:29:56.506Z,81.88
2016-05-25T01:30:56.508Z,81.21
2016-05-25T01:31:56.511Z,81.59
2016-05-25T01:32:56.498Z,81.68
2016-05-25T01:33:56.500Z,81.88
2016-05-25T01:34:56.503Z,81.4
2016-05-25T01:35:56.491Z,81.4
2016-05-25T01:36:56.493Z,81.59
2016-05-25T01:37:56.480Z,81.59
2016-05-25T01:38:56.482Z,81.59
2016-05-25T01:39:56.485Z,81.3
2016-05-25T01:40:56.505Z,81.4
2016-05-25T01:41:56.475Z,81.4
2016-05-25T01:42:56.478Z,81.3
2016-05-25T01:43:56.480Z,81.88
2016-05-25T01:44:56.483Z,81.21
2016-05-25T01:45:57.689Z,81.21
2016-05-25T01:46:56.316Z,81.78
2016-05-25T01:47:56.476Z,81.68
2016-05-25T01:48:57.369Z,81.11
2016-05-25T01:49:56.466Z,81.21
2016-05-25T01:50:56.468Z,81.49
2016-05-25T01:51:56.470Z,81.49
2016-05-25T01:52:56.724Z,81.49
2016-05-25T01:53:56.460Z,81.4
2016-05-25T01:54:56.979Z,81.68
2016-05-25T01:55:56.403Z,81.78
2016-05-25T01:56:57.515Z,81.68
2016-05-25T01:57:56.456Z,81.88
2016-05-25T01:58:57.348Z,82.35
2016-05-25T01:59:56.289Z,81.97
2016-05-25T02:00:56.854Z,82.17
2016-05-25T02:01:56.451Z,82.26
2016-05-25T02:02:56.439Z,82.07
2016-05-25T02:03:56.456Z,81.68
2016-05-25T02:04:56.287Z,81.68
2016-05-25T02:05:56.446Z,81.78
2016-05-25T02:06:56.277Z,81.78
2016-05-25T02:07:56.452Z,81.3
2016-05-25T02:08:56.422Z,81.78
2016-05-25T02:09:56.425Z,81.78
2016-05-25T02:10:56.428Z,81.78
2016-05-25T02:11:56.431Z,81.78
2016-05-25T02:12:56.419Z,81.68
2016-05-25T02:13:56.436Z,81.4
2016-05-25T02:14:56.439Z,81.3
2016-05-25T02:15:56.426Z,81.49
2016-05-25T02:16:57.022Z,81.21
2016-05-25T02:17:56.415Z,81.59
2016-05-25T02:18:56.418Z,81.3
2016-05-25T02:19:56.405Z,81.21
2016-05-25T02:20:56.252Z,81.4
2016-05-25T02:21:56.426Z,81.4
2016-05-25T02:22:56.413Z,81.21
2016-05-25T02:23:56.416Z,81.21
2016-05-25T02:24:56.404Z,81.3
2016-05-25T02:25:56.406Z,81.78
2016-05-25T02:26:56.409Z,81.68
2016-05-25T02:27:56.411Z,82.07
2016-05-25T02:28:56.398Z,81.78
2016-05-25T02:29:56.385Z,81.88
2016-05-25T02:30:57.544Z,82.17
2016-05-25T02:31:56.391Z,82.74
2016-05-25T02:32:56.690Z,82.74
2016-05-25T02:33:56.381Z,83.03
2016-05-25T02:34:56.384Z,82.89
2016-05-25T02:35:56.386Z,82.64
2016-05-25T02:36:56.389Z,83.03
2016-05-25T02:37:56.375Z,82.64
2016-05-25T02:38:56.378Z,82.74
2016-05-25T02:39:57.380Z,82.7
2016-05-25T02:40:57.025Z,83.17
2016-05-25T02:41:56.230Z,83.08
2016-05-25T02:43:10.549Z,82.79
2016-05-25T02:43:56.877Z,82.6
2016-05-25T02:44:56.363Z,82.64
2016-05-25T02:45:56.366Z,82.7
2016-05-25T02:46:56.760Z,82.7
2016-05-25T02:47:56.355Z,82.64
2016-05-25T02:48:56.358Z,82.64
2016-05-25T02:49:56.360Z,82.7
2016-05-25T02:50:56.223Z,83.22
2016-05-25T02:51:56.367Z,83.08
2016-05-25T02:52:56.212Z,82.79
2016-05-25T02:53:56.357Z,82.89
2016-05-25T02:54:56.343Z,83.03
2016-05-25T02:55:56.346Z,82.89
2016-05-25T02:56:56.349Z,82.79
2016-05-25T02:57:56.351Z,82.98
2016-05-25T02:58:56.339Z,83.17
2016-05-25T02:59:56.341Z,82.79
2016-05-25T03:00:56.187Z,82.98
2016-05-25T03:01:56.347Z,83.27
2016-05-25T03:02:56.350Z,83.03
2016-05-25T03:03:56.336Z,82.98
2016-05-25T03:04:57.151Z,82.98
2016-05-25T03:05:56.794Z,82.98
2016-05-25T03:06:56.329Z,82.89
2016-05-25T03:07:56.534Z,83.03
2016-05-25T03:08:56.537Z,82.7
2016-05-25T03:09:56.321Z,82.93
2016-05-25T03:10:56.324Z,82.89
2016-05-25T03:11:56.310Z,82.7
2016-05-25T03:12:56.314Z,82.6
2016-05-25T03:13:56.722Z,83.08
2016-05-25T03:14:57.647Z,83.31
2016-05-25T03:15:57.540Z,83.37
2016-05-25T03:16:56.637Z,83.22
2016-05-25T03:17:56.296Z,82.83
2016-05-25T03:18:56.299Z,82.83
2016-05-25T03:19:56.301Z,82.74
2016-05-25T03:20:56.554Z,82.83
2016-05-25T03:21:56.291Z,82.83
2016-05-25T03:22:56.310Z,82.74
2016-05-25T03:23:56.296Z,82.74
2016-05-25T03:24:56.299Z,82.6
2016-05-25T03:25:56.287Z,82.79
2016-05-25T03:26:56.290Z,82.41
2016-05-25T03:27:56.292Z,82.51
2016-05-25T03:28:56.279Z,82.41
2016-05-25T03:29:56.281Z,82.41
2016-05-25T03:30:56.284Z,82.45
2016-05-25T03:31:56.599Z,82.6
2016-05-25T03:32:56.289Z,82.54
2016-05-25T03:33:56.276Z,82.64
2016-05-25T03:34:56.264Z,82.35
2016-05-25T03:35:56.266Z,82.45
2016-05-25T03:36:56.269Z,81.78
2016-05-25T03:37:56.272Z,82.07
2016-05-25T03:38:56.258Z,81.88
2016-05-25T03:39:56.261Z,82.17
2016-05-25T03:40:56.108Z,81.97
2016-05-25T03:41:56.266Z,82.17
2016-05-25T03:42:56.269Z,82.07
2016-05-25T03:43:56.100Z,82.07
2016-05-25T03:44:56.258Z,82.07
2016-05-25T03:45:56.261Z,82.07
2016-05-25T03:46:56.264Z,81.78
2016-05-25T03:47:56.096Z,82.17
2016-05-25T03:48:56.255Z,82.45
2016-05-25T03:49:56.882Z,82.64
2016-05-25T03:50:56.838Z,82.45
2016-05-25T03:51:57.137Z,82.45
2016-05-25T03:52:56.234Z,81.78
2016-05-25T03:53:56.580Z,82.26
2016-05-25T03:54:56.239Z,82.07
2016-05-25T03:55:56.227Z,81.97
2016-05-25T03:56:56.229Z,81.97
2016-05-25T03:57:56.232Z,81.88
2016-05-25T03:59:56.222Z,82.17
2016-05-25T04:01:57.211Z,82.26
2016-05-25T04:02:56.371Z,82.45
2016-05-25T04:04:56.220Z,81.97
2016-05-25T04:05:56.223Z,82.17
2016-05-25T04:06:56.209Z,82.26
2016-05-25T04:07:56.211Z,82.35
2016-05-25T04:08:56.199Z,81.97
2016-05-25T04:09:56.217Z,81.97
2016-05-25T04:10:56.204Z,82.07
2016-05-25T04:11:56.206Z,81.78
2016-05-25T04:12:56.209Z,82.64
2016-05-25T04:13:56.197Z,81.97
2016-05-25T04:14:56.200Z,82.64
2016-05-25T04:15:56.186Z,81.97
2016-05-25T04:16:56.814Z,81.78
2016-05-25T04:17:56.191Z,81.78
2016-05-25T04:18:56.194Z,82.17
2016-05-25T04:19:56.048Z,82.45
2016-05-25T04:20:56.075Z,81.59
2016-05-25T04:21:56.258Z,81.78
2016-05-25T04:22:57.535Z,81.59
2016-05-25T04:23:57.154Z,81.4
2016-05-25T04:24:56.306Z,81.3
2016-05-25T04:25:56.318Z,81.68
2016-05-25T04:26:56.329Z,81.11
2016-05-25T04:27:56.324Z,81.02
2016-05-25T04:28:56.601Z,81.02
2016-05-25T04:29:56.326Z,81.4
2016-05-25T04:30:56.332Z,81.3
2016-05-25T04:31:56.338Z,80.63
2016-05-25T04:32:57.202Z,80.92
2016-05-25T04:33:57.099Z,81.02
2016-05-25T04:34:56.337Z,81.49
2016-05-25T04:35:57.153Z,81.11
2016-05-25T04:36:56.345Z,80.92
2016-05-25T04:37:56.332Z,81.21
2016-05-25T04:38:56.353Z,81.11
2016-05-25T04:39:56.340Z,80.67
2016-05-25T04:40:56.342Z,80.87
2016-05-25T04:41:56.331Z,80.87
2016-05-25T04:42:56.334Z,80.77
2016-05-25T04:43:56.336Z,80.48
2016-05-25T04:44:56.355Z,80.58
2016-05-25T04:45:56.326Z,80.19
2016-05-25T04:46:56.173Z,80.67
2016-05-25T04:47:56.317Z,80.87
2016-05-25T04:48:56.178Z,80.19
2016-05-25T04:49:56.322Z,79.72
2016-05-25T04:50:56.340Z,80
2016-05-25T04:51:56.170Z,80
2016-05-25T04:52:56.314Z,79.91
2016-05-25T04:53:56.316Z,79.91
2016-05-25T04:54:56.320Z,80.29
2016-05-25T04:55:56.322Z,79.81
2016-05-25T04:56:56.308Z,79.91
2016-05-25T04:57:56.311Z,79.81
2016-05-25T04:58:56.314Z,79.72
2016-05-25T04:59:56.302Z,79.81
2016-05-25T05:00:56.305Z,79.24
2016-05-25T05:01:56.338Z,79.62
2016-05-25T05:02:56.310Z,79.33
2016-05-25T05:03:56.297Z,79.33
2016-05-25T05:04:56.299Z,78.76
2016-05-25T05:05:56.302Z,79.05
2016-05-25T05:06:56.288Z,79.05
2016-05-25T05:07:57.495Z,79.52
2016-05-25T05:09:56.640Z,78.89
2016-05-25T05:10:56.393Z,78.51
2016-05-25T05:11:56.302Z,78.89
2016-05-25T05:12:56.290Z,78.42
2016-05-25T05:13:56.276Z,78.51
2016-05-25T05:14:56.279Z,78.61
2016-05-25T05:15:56.282Z,78.61
2016-05-25T05:16:56.410Z,78.32
2016-05-25T05:17:56.975Z,78.03
2016-05-25T05:18:56.275Z,78.22
2016-05-25T05:19:56.277Z,78.32
2016-05-25T05:20:57.140Z,78.32
2016-05-25T05:21:56.283Z,78.22
2016-05-25T05:22:56.270Z,78.13
2016-05-25T05:23:56.694Z,78.03
2016-05-25T05:24:56.119Z,78.22
2016-05-25T05:25:56.278Z,78.22
2016-05-25T05:26:56.265Z,78.13
2016-05-25T05:27:56.267Z,77.94
2016-05-25T05:28:56.270Z,77.94
2016-05-25T05:29:56.272Z,77.75
2016-05-25T05:30:56.260Z,77.75
2016-05-25T05:31:56.263Z,77.84
2016-05-25T05:32:56.266Z,77.46
2016-05-25T05:33:56.268Z,77.55
2016-05-25T05:34:56.255Z,77.26
2016-05-25T05:35:56.258Z,77.46
2016-05-25T05:36:56.261Z,77.84
2016-05-25T05:37:56.263Z,77.84
2016-05-25T05:38:56.266Z,77.84
2016-05-25T05:39:56.252Z,77.55
2016-05-25T05:40:56.099Z,77.46
2016-05-25T05:41:57.633Z,77.46
2016-05-25T05:42:56.245Z,76.98
2016-05-25T05:43:56.623Z,76.89
2016-05-25T05:44:56.328Z,76.98
2016-05-25T05:45:56.098Z,77.08
2016-05-25T05:46:56.553Z,77.17
2016-05-25T05:47:56.243Z,76.89
2016-05-25T05:48:56.246Z,77.08
2016-05-25T05:49:56.248Z,76.73
2016-05-25T05:50:57.517Z,77.17
2016-05-25T05:51:57.473Z,76.79
2016-05-25T05:52:56.241Z,76.79
2016-05-25T05:53:57.009Z,76.64
2016-05-25T05:54:57.339Z,77.11
2016-05-25T05:55:56.812Z,77.02
2016-05-25T05:56:56.236Z,76.82
2016-05-25T05:57:56.239Z,76.92
2016-05-25T05:58:56.242Z,76.73
2016-05-25T05:59:56.228Z,76.73
2016-05-25T06:00:56.247Z,76.73
2016-05-25T06:01:56.265Z,76.69
2016-05-25T06:02:56.236Z,76.6
2016-05-25T06:03:56.239Z,76.69
2016-05-25T06:04:56.241Z,76.89
2016-05-25T06:05:56.229Z,77.11
2016-05-25T06:06:56.232Z,76.79
2016-05-25T06:07:56.234Z,76.89
2016-05-25T06:08:56.253Z,76.6
2016-05-25T06:09:56.224Z,76.6
2016-05-25T06:10:56.227Z,76.6
2016-05-25T06:11:56.230Z,76.69
2016-05-25T06:12:56.216Z,76.89
2016-05-25T06:13:56.219Z,76.79
2016-05-25T06:14:56.221Z,77.08
2016-05-25T06:15:56.240Z,76.92
2016-05-25T06:16:56.227Z,77.08
2016-05-25T06:17:56.386Z,76.69
2016-05-25T06:18:56.218Z,76.98
2016-05-25T06:19:56.220Z,77.36
2016-05-25T06:20:56.222Z,76.69
2016-05-25T06:21:56.226Z,76.79
2016-05-25T06:22:56.212Z,76.69
2016-05-25T06:23:56.215Z,76.69
2016-05-25T06:24:56.062Z,77.08
2016-05-25T06:25:56.220Z,76.6
2016-05-25T06:27:10.395Z,77.36
2016-05-25T06:27:57.147Z,76.79
2016-05-25T06:28:56.213Z,77.36
2016-05-25T06:29:56.215Z,76.79
2016-05-25T06:30:56.218Z,76.69
2016-05-25T06:31:56.486Z,76.89
2016-05-25T06:32:56.458Z,77.36
2016-05-25T06:33:56.211Z,77.46
2016-05-25T06:34:56.214Z,76.79
2016-05-25T06:35:56.200Z,76.69
2016-05-25T06:36:56.203Z,76.73
2016-05-25T06:37:56.206Z,76.73
2016-05-25T06:38:56.740Z,76.82
2016-05-25T06:39:56.227Z,76.92
2016-05-25T06:40:56.198Z,77.02
2016-05-25T06:41:56.202Z,76.73
2016-05-25T06:42:57.501Z,76.82
2016-05-25T06:43:56.191Z,76.92
2016-05-25T06:44:56.193Z,77.11
2016-05-25T06:45:56.196Z,76.25
2016-05-25T06:46:56.198Z,76.15
2016-05-25T06:47:56.029Z,76.44
2016-05-25T06:48:56.032Z,76.35
2016-05-25T06:49:56.190Z,76.15
2016-05-25T06:50:56.194Z,75.96
2016-05-25T06:51:56.040Z,75.58
2016-05-25T06:52:56.183Z,75.68
2016-05-25T06:53:56.187Z,75.71
2016-05-25T06:54:56.189Z,75.62
2016-05-25T06:55:56.192Z,75.81
2016-05-25T06:56:56.179Z,75.71
2016-05-25T06:57:56.181Z,75.62
2016-05-25T06:58:56.184Z,76.1
2016-05-25T06:59:56.186Z,75.68
2016-05-25T07:00:56.205Z,75.52
2016-05-25T07:01:56.192Z,75.62
2016-05-25T07:02:59.023Z,75.62
2016-05-25T07:03:56.791Z,75.23
2016-05-25T07:04:57.122Z,75.9
2016-05-25T07:05:56.203Z,75.52
2016-05-25T07:06:56.611Z,75.52
2016-05-25T07:07:56.177Z,75.81
2016-05-25T07:08:56.180Z,75.71
2016-05-25T07:09:56.791Z,75.9
2016-05-25T07:10:56.185Z,75.62
2016-05-25T07:11:56.188Z,75.14
2016-05-25T07:12:56.174Z,75.52
2016-05-25T07:13:56.177Z,75.62
2016-05-25T07:14:56.180Z,75.04
2016-05-25T07:15:56.292Z,75.14
2016-05-25T07:16:56.560Z,75.14
2016-05-25T07:17:58.251Z,74.95
2016-05-25T07:18:56.176Z,75.14
2016-05-25T07:19:56.178Z,74.95
2016-05-25T07:20:56.181Z,74.85
2016-05-25T07:21:56.012Z,75.04
2016-05-25T07:22:58.093Z,74.18
2016-05-25T07:23:56.173Z,74.37
2016-05-25T07:24:56.176Z,74.76
2016-05-25T07:25:56.162Z,74.47
2016-05-25T07:26:56.181Z,74.02
2016-05-25T07:27:56.168Z,74.02
2016-05-25T07:28:56.170Z,74.12
2016-05-25T07:29:56.173Z,73.83
2016-05-25T07:30:56.176Z,73.74
2016-05-25T07:31:56.179Z,73.45
2016-05-25T07:32:56.181Z,72.97
2016-05-25T07:33:56.169Z,72.97
2016-05-25T07:34:56.172Z,72.97
2016-05-25T07:35:56.174Z,73.07
2016-05-25T07:36:56.162Z,72.78
2016-05-25T07:37:56.164Z,72.59
2016-05-25T07:38:56.167Z,72.43
2016-05-25T07:39:56.169Z,72.3
2016-05-25T07:40:56.188Z,71.76
2016-05-25T07:41:56.174Z,71.86
2016-05-25T07:42:56.162Z,72.53
2016-05-25T07:43:56.180Z,71.76
2016-05-25T07:44:56.183Z,71.63
2016-05-25T07:45:57.216Z,71.53
2016-05-25T07:46:56.485Z,71.82
2016-05-25T07:47:58.019Z,71.53
2016-05-25T07:48:56.724Z,71.76
2016-05-25T07:49:56.182Z,71.95
2016-05-25T07:50:56.324Z,71.57
2016-05-25T07:51:56.171Z,71.57
2016-05-25T07:52:57.954Z,71.37
2016-05-25T07:53:56.176Z,70.99
2016-05-25T07:54:56.163Z,70.7
2016-05-25T07:55:56.166Z,70.67
2016-05-25T07:56:56.809Z,70.7
2016-05-25T07:57:59.545Z,70.86
2016-05-25T07:58:56.565Z,70.67
2016-05-25T07:59:56.176Z,70.48
2016-05-25T08:00:56.569Z,70.48
2016-05-25T08:01:56.181Z,70.48
2016-05-25T08:02:56.966Z,70.29
2016-05-25T08:03:56.187Z,70.67
2016-05-25T08:04:56.175Z,70.57
2016-05-25T08:05:56.177Z,70.67
2016-05-25T08:06:56.164Z,70.48
2016-05-25T08:07:56.183Z,70.76
2016-05-25T08:08:56.185Z,70.57
2016-05-25T08:09:56.172Z,70.76
2016-05-25T08:10:56.175Z,70.61
2016-05-25T08:11:56.178Z,70.23
2016-05-25T08:12:57.586Z,70.51
2016-05-25T08:13:56.166Z,70.42
2016-05-25T08:14:56.169Z,69.84
2016-05-25T08:15:56.172Z,70.03
2016-05-25T08:16:56.175Z,69.93
2016-05-25T08:17:56.366Z,69.84
2016-05-25T08:18:56.962Z,70.13
2016-05-25T08:19:57.402Z,70.23
2016-05-25T08:20:56.593Z,69.65
2016-05-25T08:21:56.173Z,69.46
2016-05-25T08:22:56.988Z,69.11
2016-05-25T08:23:56.179Z,69.07
2016-05-25T08:24:56.462Z,68.98
2016-05-25T08:25:56.184Z,69.07
2016-05-25T08:26:56.186Z,68.98
2016-05-25T08:27:58.158Z,68.98
2016-05-25T08:28:56.411Z,69.17
2016-05-25T08:29:57.101Z,69.07
2016-05-25T08:30:56.791Z,68.79
2016-05-25T08:31:56.184Z,69.07
2016-05-25T08:32:57.750Z,68.79
2016-05-25T08:33:56.190Z,68.88
2016-05-25T08:34:56.489Z,68.44
2016-05-25T08:35:56.023Z,67.96
2016-05-25T08:36:56.182Z,68.05
2016-05-25T08:37:57.998Z,68.73
2016-05-25T08:38:56.188Z,68.05
2016-05-25T08:39:56.191Z,68.44
2016-05-25T08:40:56.193Z,67.76
2016-05-25T08:41:56.196Z,67.19
2016-05-25T08:42:57.214Z,67.51
2016-05-25T08:43:56.185Z,67.41
2016-05-25T08:44:56.188Z,66.64
2016-05-25T08:45:56.191Z,66.55
2016-05-25T08:46:56.662Z,67.07
2016-05-25T08:47:56.821Z,66.1
2016-05-25T08:48:56.183Z,65.91
2016-05-25T08:49:56.029Z,66
2016-05-25T08:50:56.048Z,65.81
2016-05-25T08:51:56.207Z,66
2016-05-25T08:52:57.632Z,65.43
2016-05-25T08:53:56.196Z,65.23
2016-05-25T08:54:56.199Z,64.98
2016-05-25T08:55:56.202Z,64.4
2016-05-25T08:56:56.204Z,64.6
2016-05-25T08:57:58.239Z,64.02
2016-05-25T08:58:56.195Z,64.25
2016-05-25T08:59:56.213Z,63.86
2016-05-25T09:00:56.043Z,63.67
2016-05-25T09:01:56.218Z,63.38
2016-05-25T09:02:57.221Z,63.38
2016-05-25T09:03:56.208Z,63.09
2016-05-25T09:04:56.210Z,63.18
2016-05-25T09:05:56.229Z,63.09
2016-05-25T09:06:56.216Z,62.32
2016-05-25T09:07:57.844Z,61.94
2016-05-25T09:08:56.222Z,61.65
2016-05-25T09:09:56.224Z,61.49
2016-05-25T09:10:56.227Z,61.19
2016-05-25T09:11:56.230Z,61.19
2016-05-25T09:12:57.483Z,61
2016-05-25T09:13:56.235Z,60.91
2016-05-25T09:14:56.238Z,60.42
2016-05-25T09:15:56.241Z,60.24
2016-05-25T09:16:56.447Z,60.24
2016-05-25T09:17:57.838Z,59.75
2016-05-25T09:18:56.249Z,60.14
2016-05-25T09:19:56.251Z,60.14
2016-05-25T09:20:56.097Z,60.14
2016-05-25T09:21:56.257Z,60.11
2016-05-25T09:22:57.588Z,60.14
2016-05-25T09:23:56.262Z,60.21
2016-05-25T09:24:56.265Z,60.39
2016-05-25T09:25:56.267Z,60.3
2016-05-25T09:26:56.113Z,60.3
2016-05-25T09:27:57.037Z,60.49
2016-05-25T09:28:56.275Z,60.49
2016-05-25T09:29:56.278Z,60.59
2016-05-25T09:30:56.281Z,60.69
2016-05-25T09:31:56.284Z,60.49
2016-05-25T09:32:56.317Z,60.49
2016-05-25T09:33:56.289Z,60.49
2016-05-25T09:34:56.292Z,60.01
2016-05-25T09:35:56.137Z,60.11
2016-05-25T09:36:56.297Z,59.63
2016-05-25T09:37:57.064Z,59.92
2016-05-25T09:38:56.287Z,59.72
2016-05-25T09:39:57.070Z,60.01
2016-05-25T09:40:57.197Z,60.11
2016-05-25T09:41:56.951Z,60.11
2016-05-25T09:42:58.048Z,60.11
2016-05-25T09:43:56.409Z,60.11
2016-05-25T09:44:56.302Z,60.21
2016-05-25T09:45:56.149Z,60.11
2016-05-25T09:46:58.261Z,60.21
2016-05-25T09:47:57.092Z,59.72
2016-05-25T09:48:57.719Z,59.66
2016-05-25T09:49:56.597Z,59.27
2016-05-25T09:50:57.413Z,59.75
2016-05-25T09:51:56.165Z,58.98
2016-05-25T09:52:56.168Z,59.08
2016-05-25T09:53:56.327Z,59.27
2016-05-25T09:54:56.329Z,59.27
2016-05-25T09:55:56.332Z,58.89
2016-05-25T09:56:56.334Z,59.08
2016-05-25T09:57:56.182Z,58.89
2016-05-25T09:58:56.340Z,58.98
2016-05-25T09:59:56.342Z,58.4
2016-05-25T10:00:56.345Z,58.7
2016-05-25T10:01:56.348Z,58.4
2016-05-25T10:02:58.007Z,58.4
2016-05-25T10:03:56.353Z,58.31
2016-05-25T10:04:56.372Z,58.7
2016-05-25T10:05:56.656Z,58.6
2016-05-25T10:06:56.361Z,58.79
2016-05-25T10:07:58.239Z,58.79
2016-05-25T10:08:56.367Z,58.5
2016-05-25T10:09:56.370Z,58.5
2016-05-25T10:10:56.513Z,58.31
2016-05-25T10:11:56.375Z,57.92
2016-05-25T10:12:56.378Z,58.5
2016-05-25T10:13:56.380Z,58.02
2016-05-25T10:14:57.586Z,58.12
2016-05-25T10:15:56.386Z,58.4
2016-05-25T10:16:56.452Z,58.05
2016-05-25T10:17:56.892Z,57.57
2016-05-25T10:18:56.238Z,57.37
2016-05-25T10:19:56.396Z,57.12
2016-05-25T10:20:56.399Z,57.21
2016-05-25T10:21:56.402Z,57.12
2016-05-25T10:22:56.389Z,56.63
2016-05-25T10:23:56.423Z,56.35
2016-05-25T10:24:56.395Z,56.15
2016-05-25T10:25:56.413Z,56.35
2016-05-25T10:26:56.415Z,56.44
2016-05-25T10:27:56.419Z,56.54
2016-05-25T10:28:56.421Z,56.05
2016-05-25T10:29:56.267Z,56.54
2016-05-25T10:30:56.426Z,56.44
2016-05-25T10:31:56.851Z,56.35
2016-05-25T10:32:56.432Z,56.05
2016-05-25T10:33:56.434Z,56.25
2016-05-25T10:34:56.437Z,56.05
2016-05-25T10:35:56.440Z,56.05
2016-05-25T10:36:56.442Z,56.25
2016-05-25T10:37:56.445Z,55.96
2016-05-25T10:38:56.292Z,56.05
2016-05-25T10:39:56.450Z,55.96
2016-05-25T10:40:56.453Z,55.96
2016-05-25T10:41:56.456Z,55.96
2016-05-25T10:42:56.459Z,55.67
2016-05-25T10:43:56.461Z,55.67
2016-05-25T10:44:56.463Z,55.57
2016-05-25T10:45:56.466Z,55.67
2016-05-25T10:46:56.485Z,55.12
2016-05-25T10:47:56.488Z,54.54
2016-05-25T10:48:56.491Z,54.44
2016-05-25T10:49:56.477Z,54.09
2016-05-25T10:50:56.480Z,53.89
2016-05-25T10:51:56.499Z,53.61
2016-05-25T10:52:56.502Z,52.95
2016-05-25T10:53:56.504Z,53.25
2016-05-25T10:54:56.507Z,52.67
2016-05-25T10:55:56.510Z,52.28
2016-05-25T10:56:56.512Z,52.28
2016-05-25T10:57:57.249Z,51.99
2016-05-25T10:58:57.345Z,52.16
2016-05-25T10:59:56.535Z,52.64
2016-05-25T11:00:56.523Z,52.45
2016-05-25T11:01:57.259Z,52.64
2016-05-25T11:02:56.935Z,52.47
2016-05-25T11:03:56.546Z,52.09
2016-05-25T11:04:56.393Z,52.09
2016-05-25T11:05:57.818Z,52.19
2016-05-25T11:06:57.429Z,51.99
2016-05-25T11:07:56.557Z,52.28
2016-05-25T11:08:56.559Z,52.19
2016-05-25T11:09:56.562Z,52.09
2016-05-25T11:10:56.581Z,52.06
2016-05-25T11:11:56.584Z,52.25
2016-05-25T11:12:56.430Z,52.35
2016-05-25T11:13:56.588Z,52.35
2016-05-25T11:14:56.591Z,52.16
2016-05-25T11:15:56.594Z,52.64
2016-05-25T11:16:56.613Z,52.25
2016-05-25T11:17:58.381Z,52.64
2016-05-25T11:18:56.603Z,52.35
2016-05-25T11:19:56.449Z,52.42
2016-05-25T11:20:56.607Z,53.19
2016-05-25T11:21:56.627Z,53.19
2016-05-25T11:22:57.785Z,53.09
2016-05-25T11:24:56.915Z,53.27
2016-05-25T11:26:56.640Z,53.36
2016-05-25T11:27:58.298Z,54.42
2016-05-25T11:28:56.645Z,54.13
2016-05-25T11:29:56.741Z,54.13
2016-05-25T11:30:56.790Z,54.03
2016-05-25T11:31:56.903Z,53.94
2016-05-25T11:32:58.640Z,54.03
2016-05-25T11:34:10.830Z,53.94
2016-05-25T11:34:57.568Z,53.74
2016-05-25T11:35:56.695Z,53.94
2016-05-25T11:36:56.712Z,53.74
2016-05-25T11:37:59.263Z,54.22
2016-05-25T11:38:56.515Z,54.39
2016-05-25T11:39:56.518Z,54.58
2016-05-25T11:40:56.678Z,54.97
2016-05-25T11:41:56.680Z,55.52
2016-05-25T11:42:56.698Z,55.52
2016-05-25T11:43:56.685Z,55.43
2016-05-25T11:44:56.719Z,55.62
2016-05-25T11:45:56.691Z,55.81
2016-05-25T11:46:56.553Z,55.81
2016-05-25T11:47:57.993Z,55.71
2016-05-25T11:48:56.699Z,55.81
2016-05-25T11:49:56.702Z,56
2016-05-25T11:50:56.704Z,56
2016-05-25T11:51:56.707Z,56
2016-05-25T11:52:56.710Z,55.81
2016-05-25T11:53:56.712Z,56
2016-05-25T11:54:56.715Z,56.2
2016-05-25T11:55:56.733Z,56.2
2016-05-25T11:56:56.720Z,56
2016-05-25T11:57:56.738Z,56.38
2016-05-25T11:58:56.726Z,56.65
2016-05-25T11:59:56.729Z,56.45
2016-05-25T12:00:56.746Z,56.74
2016-05-25T12:01:56.577Z,56.55
2016-05-25T12:02:57.080Z,56.93
2016-05-25T12:03:56.740Z,57.03
2016-05-25T12:04:56.742Z,57.03
2016-05-25T12:05:56.744Z,57.13
2016-05-25T12:06:56.747Z,56.74
2016-05-25T12:07:56.750Z,56.74
2016-05-25T12:08:56.737Z,56.93
2016-05-25T12:09:56.740Z,56.93
2016-05-25T12:10:56.773Z,57.03
2016-05-25T12:11:56.744Z,56.93
2016-05-25T12:12:56.764Z,57.03
2016-05-25T12:13:56.750Z,56.93
2016-05-25T12:14:56.753Z,56.84
2016-05-25T12:15:58.005Z,57.13
2016-05-25T12:16:57.570Z,56.87
2016-05-25T12:17:56.792Z,57.03
2016-05-25T12:18:57.170Z,56.93
2016-05-25T12:19:57.095Z,57.03
2016-05-25T12:20:56.863Z,57.35
2016-05-25T12:21:57.147Z,57.8
2016-05-25T12:22:56.775Z,57.8
2016-05-25T12:23:56.621Z,57.6
2016-05-25T12:24:56.811Z,57.32
2016-05-25T12:25:57.969Z,57.42
2016-05-25T12:26:58.082Z,57.42
2016-05-25T12:27:57.350Z,57.51
2016-05-25T12:28:56.791Z,57.6
2016-05-25T12:29:56.777Z,57.8
2016-05-25T12:30:56.796Z,57.35
2016-05-25T12:31:56.782Z,57.06
2016-05-25T12:32:56.785Z,56.58
2016-05-25T12:33:56.648Z,56.67
2016-05-25T12:34:56.791Z,56.58
2016-05-25T12:35:56.793Z,56.87
2016-05-25T12:36:56.796Z,56.48
2016-05-25T12:37:58.596Z,56.41
2016-05-25T12:38:56.802Z,56.32
2016-05-25T12:39:56.804Z,56.41
2016-05-25T12:40:56.807Z,56.12
2016-05-25T12:41:57.356Z,55.93
2016-05-25T12:42:56.812Z,56.32
2016-05-25T12:43:56.815Z,56.41
2016-05-25T12:44:56.818Z,56.22
2016-05-25T12:45:56.820Z,56.1
2016-05-25T12:46:56.823Z,56.2
2016-05-25T12:47:56.873Z,56.32
2016-05-25T12:48:56.829Z,56.41
2016-05-25T12:49:56.832Z,56.29
2016-05-25T12:50:58.052Z,56.22
2016-05-25T12:51:56.852Z,56.03
2016-05-25T12:52:59.792Z,56.12
2016-05-25T12:53:56.842Z,56.03
2016-05-25T12:54:56.845Z,56.03
2016-05-25T12:55:56.691Z,56.03
2016-05-25T12:56:57.193Z,56.03
2016-05-25T12:57:56.853Z,55.83
2016-05-25T12:58:56.855Z,55.93
2016-05-25T12:59:56.858Z,55.83
2016-05-25T13:00:56.860Z,55.93
2016-05-25T13:01:56.864Z,56.05
2016-05-25T13:02:56.882Z,55.96